Hatsu Envoy — VSQL9 — position and weather

sailwx.info

Track history (hours):
 
Tides and Currents Weather Stations Pressure Air Temp Water Temp Dewpoint Dewpoint Depression Visibility Wind Speed Wind Dir Waves Ship Positions

Hatsu Envoy

Last reported at 2016-Jun-21 15:19 UTC. Time now 2016-Jun-30 12:19 UTC.
Position N 48°31' W 126°42'.
Warning: this ship's position is 8 days out of date.

Type: Cargo ship. MMSI: 235414000.

Date/timePositionNaut miles runAvg speedWind from/ knotsBaromVisibWave heightAir tempDewpointWater temp
2016-Jun-21 15:19N 48°31' W 126°42'1112.1
2016-Jun-21 14:23N 48°31' W 126°24'1011.9
2016-Jun-21 13:33N 48°30' W 126°10'1211.8
2016-Jun-21 12:34N 48°30' W 125°52'1212.4
2016-Jun-21 11:34N 48°30' W 125°33'1312.3
2016-Jun-21 10:32N 48°31' W 125°14'1211.7
2016-Jun-21 09:33N 48°31' W 124°57'1211.9
2016-Jun-21 08:33N 48°30' W 124°39'1312.6
2016-Jun-21 07:34N 48°25' W 124°22'3612.1
2016-Jun-21 04:33N 48°18' W 123°28'10 9.9
2016-Jun-21 03:33N 48°24' W 123°16'1616.0
2016-Jun-21 02:33N 48°40' W 123°15'1413.5
2016-Jun-21 01:33N 48°51' W 123°05'1818.3
2016-Jun-21 00:34N 49°05' W 123°24'1515.2
2016-Jun-20 23:33N 49°19' W 123°15'7 7.1
2016-Jun-20 22:33N 49°17' W 123°05'0 0.0
2016-Jun-20 21:33N 49°17' W 123°05'0 0.0
2016-Jun-20 20:33N 49°17' W 123°05'0 0.0
2016-Jun-20 19:33N 49°17' W 123°05'0 0.0
2016-Jun-20 18:33N 49°17' W 123°05'0 0.0
2016-Jun-20 17:33N 49°17' W 123°05'0 0.0
2016-Jun-20 16:33N 49°17' W 123°05'0 0.0
2016-Jun-20 15:33N 49°17' W 123°05'0 0.0
2016-Jun-20 14:33N 49°17' W 123°05'0 0.0
2016-Jun-20 13:33N 49°17' W 123°05'0 0.0
2016-Jun-20 12:33N 49°17' W 123°05'0 0.0
2016-Jun-20 11:33N 49°17' W 123°05'0 0.0
2016-Jun-20 10:33N 49°17' W 123°05'0 0.0
2016-Jun-20 09:33N 49°17' W 123°05'0 0.0
2016-Jun-20 08:33N 49°17' W 123°05'0 0.0
2016-Jun-20 07:33N 49°17' W 123°05'0 0.0
2016-Jun-20 06:33N 49°17' W 123°05'0 0.0
2016-Jun-20 05:33N 49°17' W 123°05'0 0.0
2016-Jun-20 04:33N 49°17' W 123°05'0 0.0
2016-Jun-20 03:33N 49°17' W 123°05'0 0.0
2016-Jun-20 02:33N 49°17' W 123°05'0 0.0
2016-Jun-20 01:33N 49°17' W 123°05'0 0.0
2016-Jun-20 00:33N 49°17' W 123°05'0 0.0
2016-Jun-19 23:33N 49°17' W 123°05'0 0.0
2016-Jun-19 22:33N 49°17' W 123°05'0 0.0
2016-Jun-19 21:33N 49°17' W 123°05'0 0.0
2016-Jun-19 20:33N 49°17' W 123°05'0 0.0
2016-Jun-19 19:33N 49°17' W 123°05'0 0.0
2016-Jun-19 18:33N 49°17' W 123°05'0 0.0
2016-Jun-19 17:33N 49°17' W 123°05'0 0.0
2016-Jun-19 16:33N 49°17' W 123°05'0 0.0
2016-Jun-19 15:33N 49°17' W 123°05'0 0.0
2016-Jun-19 14:33N 49°17' W 123°05'0 0.2
2016-Jun-19 13:33N 49°17' W 123°05'7 6.8
2016-Jun-19 12:33N 49°18' W 123°15'1716.7
2016-Jun-19 11:33N 49°02' W 123°17'1818.0
2016-Jun-19 10:34N 48°47' W 123°01'1515.1
2016-Jun-19 09:34N 48°34' W 123°12'1313.1
2016-Jun-19 08:34N 48°22' W 123°20'1211.9
2016-Jun-19 07:32N 48°10' W 123°23'1212.5
2016-Jun-19 06:33N 48°13' W 123°05'1818.3
2016-Jun-19 05:33N 48°07' W 122°39'2019.7
2016-Jun-19 04:34N 47°49' W 122°27'1717.5
2016-Jun-19 03:34N 47°31' W 122°25'1211.9
2016-Jun-19 02:33N 47°19' W 122°27'5 4.5
2016-Jun-19 01:32N 47°16' W 122°23'0 0.1
2016-Jun-18 21:28N 47°15' W 122°23'0 0.0
2016-Jun-18 20:10N 47°15' W 122°23'0 0.0
2016-Jun-18 19:31N 47°15' W 122°23'0 0.0
2016-Jun-18 18:31N 47°15' W 122°23'0 0.0
2016-Jun-18 17:28N 47°15' W 122°23'0 0.0
2016-Jun-18 16:28N 47°15' W 122°23'0 0.0
2016-Jun-18 15:31N 47°15' W 122°23'0 0.0
2016-Jun-18 14:28N 47°15' W 122°23'0 0.0
2016-Jun-18 13:28N 47°15' W 122°23'0 0.0
2016-Jun-18 12:31N 47°15' W 122°23'0 0.0
2016-Jun-18 11:31N 47°15' W 122°23'0 0.0
2016-Jun-18 10:31N 47°15' W 122°23'0 0.0
2016-Jun-18 09:31N 47°15' W 122°23'0 0.0
2016-Jun-18 08:28N 47°15' W 122°23'0 0.0
2016-Jun-18 07:31N 47°15' W 122°23'0 0.0
2016-Jun-18 06:31N 47°15' W 122°23'0 0.0
2016-Jun-18 05:31N 47°15' W 122°23'0 0.0
2016-Jun-18 04:25N 47°15' W 122°23'0 0.0
2016-Jun-18 03:25N 47°15' W 122°23'0 0.0
2016-Jun-18 02:19N 47°15' W 122°23'0 0.0
2016-Jun-18 00:31N 47°15' W 122°23'0 0.0
2016-Jun-17 23:16N 47°15' W 122°23'0 0.0
2016-Jun-17 22:31N 47°15' W 122°23'0 0.0
2016-Jun-17 20:28N 47°15' W 122°23'0 0.0
2016-Jun-17 19:10N 47°15' W 122°23'0 0.0
2016-Jun-17 18:31N 47°15' W 122°23'0 0.0
2016-Jun-17 17:25N 47°15' W 122°23'0 0.0
2016-Jun-17 16:07N 47°15' W 122°23'0 0.0
2016-Jun-17 14:28N 47°15' W 122°23'0 0.0
2016-Jun-17 13:31N 47°15' W 122°23'0 0.0
2016-Jun-17 11:28N 47°15' W 122°23'2 1.8
2016-Jun-17 10:33N 47°16' W 122°24'5 5.4
2016-Jun-17 09:33N 47°22' W 122°24'1515.1
2016-Jun-17 08:33N 47°37' W 122°28'1716.9
2016-Jun-17 07:33N 47°54' W 122°30'1918.5
2016-Jun-17 06:33N 48°09' W 122°45'1717.3
2016-Jun-17 05:32N 48°11' W 123°11'1111.1
2016-Jun-17 04:31N 48°11' W 123°27'9 9.0
2016-Jun-17 03:33N 48°14' W 123°40'1110.7
2016-Jun-17 02:33N 48°14' W 123°56'1110.8
2016-Jun-17 01:33N 48°18' W 124°11'1111.2
2016-Jun-17 00:33N 48°23' W 124°26'1211.6
2016-Jun-16 23:33N 48°28' W 124°41'1212.3
2016-Jun-16 22:33N 48°29' W 125°00'1312.9
2016-Jun-16 21:33N 48°29' W 125°19'1312.6
2016-Jun-16 20:33N 48°29' W 125°39'1212.4
2016-Jun-16 19:33N 48°29' W 125°57'1312.7
2016-Jun-16 18:33N 48°29' W 126°16'1312.5
2016-Jun-16 17:33N 48°29' W 126°36'24712.0
2016-Jun-15 21:00N 48°30' W 132°48'   060 / 141016.010.8 1.012.0 1.012.0
Track history (hours):
 
Tides and Currents Weather Stations Pressure Air Temp Water Temp Dewpoint Dewpoint Depression Visibility Wind Speed Wind Dir Waves Ship Positions

Hatsu Envoy

Last reported at 2016-Jun-21 15:19 UTC. Time now 2016-Jun-30 12:19 UTC.
Position N 48°31' W 126°42'.
Warning: this ship's position is 8 days out of date.

Type: Cargo ship. MMSI: 235414000.

Date/timePositionNaut miles runAvg speedWind from/ knotsBaromVisibWave heightAir tempDewpointWater temp
2016-Jun-21 15:19N 48°31' W 126°42'1112.1
2016-Jun-21 14:23N 48°31' W 126°24'1011.9
2016-Jun-21 13:33N 48°30' W 126°10'1211.8
2016-Jun-21 12:34N 48°30' W 125°52'1212.4
2016-Jun-21 11:34N 48°30' W 125°33'1312.3
2016-Jun-21 10:32N 48°31' W 125°14'1211.7
2016-Jun-21 09:33N 48°31' W 124°57'1211.9
2016-Jun-21 08:33N 48°30' W 124°39'1312.6
2016-Jun-21 07:34N 48°25' W 124°22'3612.1
2016-Jun-21 04:33N 48°18' W 123°28'10 9.9
2016-Jun-21 03:33N 48°24' W 123°16'1616.0
2016-Jun-21 02:33N 48°40' W 123°15'1413.5
2016-Jun-21 01:33N 48°51' W 123°05'1818.3
2016-Jun-21 00:34N 49°05' W 123°24'1515.2
2016-Jun-20 23:33N 49°19' W 123°15'7 7.1
2016-Jun-20 22:33N 49°17' W 123°05'0 0.0
2016-Jun-20 21:33N 49°17' W 123°05'0 0.0
2016-Jun-20 20:33N 49°17' W 123°05'0 0.0
2016-Jun-20 19:33N 49°17' W 123°05'0 0.0
2016-Jun-20 18:33N 49°17' W 123°05'0 0.0
2016-Jun-20 17:33N 49°17' W 123°05'0 0.0
2016-Jun-20 16:33N 49°17' W 123°05'0 0.0
2016-Jun-20 15:33N 49°17' W 123°05'0 0.0
2016-Jun-20 14:33N 49°17' W 123°05'0 0.0
2016-Jun-20 13:33N 49°17' W 123°05'0 0.0
2016-Jun-20 12:33N 49°17' W 123°05'0 0.0
2016-Jun-20 11:33N 49°17' W 123°05'0 0.0
2016-Jun-20 10:33N 49°17' W 123°05'0 0.0
2016-Jun-20 09:33N 49°17' W 123°05'0 0.0
2016-Jun-20 08:33N 49°17' W 123°05'0 0.0
2016-Jun-20 07:33N 49°17' W 123°05'0 0.0
2016-Jun-20 06:33N 49°17' W 123°05'0 0.0
2016-Jun-20 05:33N 49°17' W 123°05'0 0.0
2016-Jun-20 04:33N 49°17' W 123°05'0 0.0
2016-Jun-20 03:33N 49°17' W 123°05'0 0.0
2016-Jun-20 02:33N 49°17' W 123°05'0 0.0
2016-Jun-20 01:33N 49°17' W 123°05'0 0.0
2016-Jun-20 00:33N 49°17' W 123°05'0 0.0
2016-Jun-19 23:33N 49°17' W 123°05'0 0.0
2016-Jun-19 22:33N 49°17' W 123°05'0 0.0
2016-Jun-19 21:33N 49°17' W 123°05'0 0.0
2016-Jun-19 20:33N 49°17' W 123°05'0 0.0
2016-Jun-19 19:33N 49°17' W 123°05'0 0.0
2016-Jun-19 18:33N 49°17' W 123°05'0 0.0
2016-Jun-19 17:33N 49°17' W 123°05'0 0.0
2016-Jun-19 16:33N 49°17' W 123°05'0 0.0
2016-Jun-19 15:33N 49°17' W 123°05'0 0.0
2016-Jun-19 14:33N 49°17' W 123°05'0 0.2
2016-Jun-19 13:33N 49°17' W 123°05'7 6.8
2016-Jun-19 12:33N 49°18' W 123°15'1716.7
2016-Jun-19 11:33N 49°02' W 123°17'1818.0
2016-Jun-19 10:34N 48°47' W 123°01'1515.1
2016-Jun-19 09:34N 48°34' W 123°12'1313.1
2016-Jun-19 08:34N 48°22' W 123°20'1211.9
2016-Jun-19 07:32N 48°10' W 123°23'1212.5
2016-Jun-19 06:33N 48°13' W 123°05'1818.3
2016-Jun-19 05:33N 48°07' W 122°39'2019.7
2016-Jun-19 04:34N 47°49' W 122°27'1717.5
2016-Jun-19 03:34N 47°31' W 122°25'1211.9
2016-Jun-19 02:33N 47°19' W 122°27'5 4.5
2016-Jun-19 01:32N 47°16' W 122°23'0 0.1
2016-Jun-18 21:28N 47°15' W 122°23'0 0.0
2016-Jun-18 20:10N 47°15' W 122°23'0 0.0
2016-Jun-18 19:31N 47°15' W 122°23'0 0.0
2016-Jun-18 18:31N 47°15' W 122°23'0 0.0
2016-Jun-18 17:28N 47°15' W 122°23'0 0.0
2016-Jun-18 16:28N 47°15' W 122°23'0 0.0
2016-Jun-18 15:31N 47°15' W 122°23'0 0.0
2016-Jun-18 14:28N 47°15' W 122°23'0 0.0
2016-Jun-18 13:28N 47°15' W 122°23'0 0.0
2016-Jun-18 12:31N 47°15' W 122°23'0 0.0
2016-Jun-18 11:31N 47°15' W 122°23'0 0.0
2016-Jun-18 10:31N 47°15' W 122°23'0 0.0
2016-Jun-18 09:31N 47°15' W 122°23'0 0.0
2016-Jun-18 08:28N 47°15' W 122°23'0 0.0
2016-Jun-18 07:31N 47°15' W 122°23'0 0.0
2016-Jun-18 06:31N 47°15' W 122°23'0 0.0
2016-Jun-18 05:31N 47°15' W 122°23'0 0.0
2016-Jun-18 04:25N 47°15' W 122°23'0 0.0
2016-Jun-18 03:25N 47°15' W 122°23'0 0.0
2016-Jun-18 02:19N 47°15' W 122°23'0 0.0
2016-Jun-18 00:31N 47°15' W 122°23'0 0.0
2016-Jun-17 23:16N 47°15' W 122°23'0 0.0
2016-Jun-17 22:31N 47°15' W 122°23'0 0.0
2016-Jun-17 20:28N 47°15' W 122°23'0 0.0
2016-Jun-17 19:10N 47°15' W 122°23'0 0.0
2016-Jun-17 18:31N 47°15' W 122°23'0 0.0
2016-Jun-17 17:25N 47°15' W 122°23'0 0.0
2016-Jun-17 16:07N 47°15' W 122°23'0 0.0
2016-Jun-17 14:28N 47°15' W 122°23'0 0.0
2016-Jun-17 13:31N 47°15' W 122°23'0 0.0
2016-Jun-17 11:28N 47°15' W 122°23'2 1.8
2016-Jun-17 10:33N 47°16' W 122°24'5 5.4
2016-Jun-17 09:33N 47°22' W 122°24'1515.1
2016-Jun-17 08:33N 47°37' W 122°28'1716.9
2016-Jun-17 07:33N 47°54' W 122°30'1918.5
2016-Jun-17 06:33N 48°09' W 122°45'1717.3
2016-Jun-17 05:32N 48°11' W 123°11'1111.1
2016-Jun-17 04:31N 48°11' W 123°27'9 9.0
2016-Jun-17 03:33N 48°14' W 123°40'1110.7
2016-Jun-17 02:33N 48°14' W 123°56'1110.8
2016-Jun-17 01:33N 48°18' W 124°11'1111.2
2016-Jun-17 00:33N 48°23' W 124°26'1211.6
2016-Jun-16 23:33N 48°28' W 124°41'1212.3
2016-Jun-16 22:33N 48°29' W 125°00'1312.9
2016-Jun-16 21:33N 48°29' W 125°19'1312.6
2016-Jun-16 20:33N 48°29' W 125°39'1212.4
2016-Jun-16 19:33N 48°29' W 125°57'1312.7
2016-Jun-16 18:33N 48°29' W 126°16'1312.5
2016-Jun-16 17:33N 48°29' W 126°36'24712.0
2016-Jun-15 21:00N 48°30' W 132°48'   060 / 141016.010.8 1.012.0 1.012.0

Dump ship's entire track history